sensor_id;sensor_type;location;lat;lon;timestamp;P1;durP1;ratioP1;P2;durP2;ratioP2
17696;SDS011;8967;47.984;7.842;2022-10-16T00:01:04;2.60;;;1.00;;
17696;SDS011;8967;47.984;7.842;2022-10-16T00:03:32;2.13;;;0.65;;
17696;SDS011;8967;47.984;7.842;2022-10-16T00:06:02;1.60;;;1.00;;
17696;SDS011;8967;47.984;7.842;2022-10-16T00:08:32;2.70;;;0.63;;
17696;SDS011;8967;47.984;7.842;2022-10-16T00:11:00;1.35;;;1.05;;
17696;SDS011;8967;47.984;7.842;2022-10-16T00:13:29;4.47;;;0.90;;
17696;SDS011;8967;47.984;7.842;2022-10-16T00:15:57;2.28;;;0.70;;
17696;SDS011;8967;47.984;7.842;2022-10-16T00:18:27;2.85;;;0.80;;
17696;SDS011;8967;47.984;7.842;2022-10-16T00:20:55;2.10;;;0.90;;
17696;SDS011;8967;47.984;7.842;2022-10-16T00:23:27;1.90;;;0.68;;
17696;SDS011;8967;47.984;7.842;2022-10-16T00:25:54;2.50;;;0.95;;
17696;SDS011;8967;47.984;7.842;2022-10-16T00:28:22;2.22;;;1.08;;
17696;SDS011;8967;47.984;7.842;2022-10-16T00:30:50;5.65;;;1.10;;
17696;SDS011;8967;47.984;7.842;2022-10-16T00:33:19;6.38;;;1.02;;
17696;SDS011;8967;47.984;7.842;2022-10-16T00:35:46;7.53;;;1.10;;
17696;SDS011;8967;47.984;7.842;2022-10-16T00:38:16;2.55;;;0.98;;
17696;SDS011;8967;47.984;7.842;2022-10-16T00:40:43;2.70;;;1.17;;
17696;SDS011;8967;47.984;7.842;2022-10-16T00:43:13;1.45;;;1.00;;
17696;SDS011;8967;47.984;7.842;2022-10-16T00:45:59;2.50;;;0.73;;
17696;SDS011;8967;47.984;7.842;2022-10-16T00:48:28;1.30;;;1.02;;
17696;SDS011;8967;47.984;7.842;2022-10-16T00:50:55;1.10;;;0.75;;
17696;SDS011;8967;47.984;7.842;2022-10-16T00:53:23;2.90;;;0.88;;
17696;SDS011;8967;47.984;7.842;2022-10-16T00:55:51;4.50;;;0.93;;
17696;SDS011;8967;47.984;7.842;2022-10-16T00:58:19;2.17;;;0.73;;
17696;SDS011;8967;47.984;7.842;2022-10-16T01:00:47;6.85;;;0.90;;
17696;SDS011;8967;47.984;7.842;2022-10-16T01:03:25;1.83;;;0.85;;
17696;SDS011;8967;47.984;7.842;2022-10-16T01:05:58;1.05;;;1.05;;
17696;SDS011;8967;47.984;7.842;2022-10-16T01:08:34;1.65;;;0.93;;
17696;SDS011;8967;47.984;7.842;2022-10-16T01:11:07;4.53;;;0.73;;
17696;SDS011;8967;47.984;7.842;2022-10-16T01:13:43;2.03;;;0.77;;
17696;SDS011;8967;47.984;7.842;2022-10-16T01:16:15;1.08;;;0.95;;
17696;SDS011;8967;47.984;7.842;2022-10-16T01:18:53;1.58;;;0.70;;
17696;SDS011;8967;47.984;7.842;2022-10-16T01:21:25;0.98;;;0.88;;
17696;SDS011;8967;47.984;7.842;2022-10-16T01:23:58;3.67;;;0.80;;
17696;SDS011;8967;47.984;7.842;2022-10-16T01:26:36;7.03;;;1.45;;
17696;SDS011;8967;47.984;7.842;2022-10-16T01:29:18;1.55;;;0.90;;
17696;SDS011;8967;47.984;7.842;2022-10-16T01:31:53;2.78;;;0.82;;
17696;SDS011;8967;47.984;7.842;2022-10-16T01:34:25;3.30;;;0.65;;
17696;SDS011;8967;47.984;7.842;2022-10-16T01:36:57;3.45;;;1.00;;
17696;SDS011;8967;47.984;7.842;2022-10-16T01:39:31;4.28;;;0.98;;
17696;SDS011;8967;47.984;7.842;2022-10-16T01:42:03;3.72;;;0.80;;
17696;SDS011;8967;47.984;7.842;2022-10-16T01:44:35;6.30;;;0.90;;
17696;SDS011;8967;47.984;7.842;2022-10-16T01:47:07;3.13;;;0.85;;
17696;SDS011;8967;47.984;7.842;2022-10-16T01:49:38;4.53;;;1.08;;
17696;SDS011;8967;47.984;7.842;2022-10-16T01:52:08;4.68;;;1.17;;
17696;SDS011;8967;47.984;7.842;2022-10-16T01:54:41;4.97;;;1.10;;
17696;SDS011;8967;47.984;7.842;2022-10-16T01:57:11;2.63;;;0.70;;
17696;SDS011;8967;47.984;7.842;2022-10-16T01:59:43;1.17;;;0.70;;
17696;SDS011;8967;47.984;7.842;2022-10-16T02:02:13;2.72;;;0.93;;
17696;SDS011;8967;47.984;7.842;2022-10-16T02:04:43;2.05;;;0.85;;
17696;SDS011;8967;47.984;7.842;2022-10-16T02:07:15;4.70;;;0.85;;
17696;SDS011;8967;47.984;7.842;2022-10-16T02:09:44;2.97;;;0.90;;
17696;SDS011;8967;47.984;7.842;2022-10-16T02:12:12;3.60;;;0.85;;
17696;SDS011;8967;47.984;7.842;2022-10-16T02:14:46;2.15;;;0.88;;
17696;SDS011;8967;47.984;7.842;2022-10-16T02:17:14;5.40;;;0.90;;
17696;SDS011;8967;47.984;7.842;2022-10-16T02:19:43;2.20;;;1.10;;
17696;SDS011;8967;47.984;7.842;2022-10-16T02:22:12;3.85;;;0.77;;
17696;SDS011;8967;47.984;7.842;2022-10-16T02:24:45;0.80;;;0.73;;
17696;SDS011;8967;47.984;7.842;2022-10-16T02:27:19;1.70;;;0.90;;
17696;SDS011;8967;47.984;7.842;2022-10-16T02:29:53;1.00;;;0.70;;
17696;SDS011;8967;47.984;7.842;2022-10-16T02:32:24;3.60;;;0.80;;
17696;SDS011;8967;47.984;7.842;2022-10-16T02:34:56;3.90;;;0.80;;
17696;SDS011;8967;47.984;7.842;2022-10-16T02:37:25;3.17;;;1.00;;
17696;SDS011;8967;47.984;7.842;2022-10-16T02:39:53;4.38;;;1.10;;
17696;SDS011;8967;47.984;7.842;2022-10-16T02:42:27;6.97;;;1.20;;
17696;SDS011;8967;47.984;7.842;2022-10-16T02:44:56;6.57;;;0.85;;
17696;SDS011;8967;47.984;7.842;2022-10-16T02:47:23;0.85;;;0.80;;
17696;SDS011;8967;47.984;7.842;2022-10-16T02:49:49;2.90;;;0.98;;
17696;SDS011;8967;47.984;7.842;2022-10-16T02:52:16;2.92;;;0.73;;
17696;SDS011;8967;47.984;7.842;2022-10-16T02:54:43;2.17;;;0.88;;
17696;SDS011;8967;47.984;7.842;2022-10-16T02:57:10;2.15;;;1.00;;
17696;SDS011;8967;47.984;7.842;2022-10-16T02:59:38;3.03;;;0.90;;
17696;SDS011;8967;47.984;7.842;2022-10-16T03:02:06;5.68;;;1.08;;
17696;SDS011;8967;47.984;7.842;2022-10-16T03:04:35;1.67;;;0.95;;
17696;SDS011;8967;47.984;7.842;2022-10-16T03:07:03;1.92;;;0.90;;
17696;SDS011;8967;47.984;7.842;2022-10-16T03:09:30;3.10;;;0.77;;
17696;SDS011;8967;47.984;7.842;2022-10-16T03:11:57;1.80;;;0.82;;
17696;SDS011;8967;47.984;7.842;2022-10-16T03:14:24;3.67;;;0.90;;
17696;SDS011;8967;47.984;7.842;2022-10-16T03:16:51;4.85;;;1.20;;
17696;SDS011;8967;47.984;7.842;2022-10-16T03:19:19;1.70;;;0.77;;
17696;SDS011;8967;47.984;7.842;2022-10-16T03:21:46;2.63;;;0.60;;
17696;SDS011;8967;47.984;7.842;2022-10-16T03:24:13;1.83;;;1.05;;
17696;SDS011;8967;47.984;7.842;2022-10-16T03:26:42;1.75;;;1.25;;
17696;SDS011;8967;47.984;7.842;2022-10-16T03:29:09;5.80;;;1.02;;
17696;SDS011;8967;47.984;7.842;2022-10-16T03:31:35;1.27;;;1.17;;
17696;SDS011;8967;47.984;7.842;2022-10-16T03:34:02;4.03;;;0.95;;
17696;SDS011;8967;47.984;7.842;2022-10-16T03:36:33;0.80;;;0.80;;
17696;SDS011;8967;47.984;7.842;2022-10-16T03:39:00;2.72;;;1.08;;
17696;SDS011;8967;47.984;7.842;2022-10-16T03:41:27;2.58;;;0.90;;
17696;SDS011;8967;47.984;7.842;2022-10-16T03:43:54;3.20;;;1.10;;
17696;SDS011;8967;47.984;7.842;2022-10-16T03:46:20;1.63;;;1.00;;
17696;SDS011;8967;47.984;7.842;2022-10-16T03:48:47;6.32;;;1.00;;
17696;SDS011;8967;47.984;7.842;2022-10-16T03:51:14;1.45;;;1.02;;
17696;SDS011;8967;47.984;7.842;2022-10-16T03:53:43;4.25;;;1.10;;
17696;SDS011;8967;47.984;7.842;2022-10-16T03:56:09;3.15;;;1.38;;
17696;SDS011;8967;47.984;7.842;2022-10-16T03:58:36;2.03;;;0.90;;
17696;SDS011;8967;47.984;7.842;2022-10-16T04:01:03;4.10;;;1.00;;
17696;SDS011;8967;47.984;7.842;2022-10-16T04:03:30;1.08;;;0.85;;
17696;SDS011;8967;47.984;7.842;2022-10-16T04:05:57;2.88;;;1.13;;
17696;SDS011;8967;47.984;7.842;2022-10-16T04:08:24;11.45;;;1.65;;
17696;SDS011;8967;47.984;7.842;2022-10-16T04:10:52;1.60;;;0.98;;
17696;SDS011;8967;47.984;7.842;2022-10-16T04:13:19;5.75;;;1.10;;
17696;SDS011;8967;47.984;7.842;2022-10-16T04:15:49;2.28;;;1.33;;
17696;SDS011;8967;47.984;7.842;2022-10-16T04:18:16;2.58;;;1.00;;
17696;SDS011;8967;47.984;7.842;2022-10-16T04:20:43;4.57;;;1.08;;
17696;SDS011;8967;47.984;7.842;2022-10-16T04:23:10;3.13;;;1.27;;
17696;SDS011;8967;47.984;7.842;2022-10-16T04:25:45;1.80;;;1.13;;
17696;SDS011;8967;47.984;7.842;2022-10-16T04:28:13;3.35;;;1.40;;
17696;SDS011;8967;47.984;7.842;2022-10-16T04:30:40;3.53;;;1.30;;
17696;SDS011;8967;47.984;7.842;2022-10-16T04:33:08;2.45;;;1.00;;
17696;SDS011;8967;47.984;7.842;2022-10-16T04:35:35;1.27;;;1.17;;
17696;SDS011;8967;47.984;7.842;2022-10-16T04:38:02;3.80;;;1.10;;
17696;SDS011;8967;47.984;7.842;2022-10-16T04:40:31;3.00;;;1.20;;
17696;SDS011;8967;47.984;7.842;2022-10-16T04:43:01;2.65;;;1.20;;
17696;SDS011;8967;47.984;7.842;2022-10-16T04:45:29;7.28;;;1.30;;
17696;SDS011;8967;47.984;7.842;2022-10-16T04:47:59;9.13;;;1.25;;
17696;SDS011;8967;47.984;7.842;2022-10-16T04:50:26;2.92;;;1.10;;
17696;SDS011;8967;47.984;7.842;2022-10-16T04:53:04;0.88;;;0.88;;
17696;SDS011;8967;47.984;7.842;2022-10-16T04:55:30;3.63;;;1.20;;
17696;SDS011;8967;47.984;7.842;2022-10-16T04:57:58;3.75;;;1.23;;
17696;SDS011;8967;47.984;7.842;2022-10-16T05:00:24;3.92;;;1.25;;
17696;SDS011;8967;47.984;7.842;2022-10-16T05:02:53;5.65;;;1.10;;
17696;SDS011;8967;47.984;7.842;2022-10-16T05:05:20;1.60;;;1.20;;
17696;SDS011;8967;47.984;7.842;2022-10-16T05:07:48;8.45;;;1.70;;
17696;SDS011;8967;47.984;7.842;2022-10-16T05:10:15;8.07;;;1.83;;
17696;SDS011;8967;47.984;7.842;2022-10-16T05:12:43;2.65;;;1.40;;
17696;SDS011;8967;47.984;7.842;2022-10-16T05:15:12;6.10;;;1.30;;
17696;SDS011;8967;47.984;7.842;2022-10-16T05:17:39;3.53;;;1.20;;
17696;SDS011;8967;47.984;7.842;2022-10-16T05:20:07;1.73;;;1.35;;
17696;SDS011;8967;47.984;7.842;2022-10-16T05:22:35;4.35;;;1.30;;
17696;SDS011;8967;47.984;7.842;2022-10-16T05:25:02;2.35;;;1.30;;
17696;SDS011;8967;47.984;7.842;2022-10-16T05:27:31;5.90;;;1.20;;
17696;SDS011;8967;47.984;7.842;2022-10-16T05:29:58;2.45;;;1.30;;
17696;SDS011;8967;47.984;7.842;2022-10-16T05:32:27;2.38;;;1.40;;
17696;SDS011;8967;47.984;7.842;2022-10-16T05:34:54;7.05;;;1.42;;
17696;SDS011;8967;47.984;7.842;2022-10-16T05:37:22;5.07;;;1.20;;
17696;SDS011;8967;47.984;7.842;2022-10-16T05:39:49;2.08;;;1.23;;
17696;SDS011;8967;47.984;7.842;2022-10-16T05:42:16;3.35;;;1.40;;
17696;SDS011;8967;47.984;7.842;2022-10-16T05:44:44;3.67;;;1.08;;
17696;SDS011;8967;47.984;7.842;2022-10-16T05:47:13;1.02;;;0.98;;
17696;SDS011;8967;47.984;7.842;2022-10-16T05:49:40;1.33;;;1.10;;
17696;SDS011;8967;47.984;7.842;2022-10-16T05:52:07;2.42;;;1.35;;
17696;SDS011;8967;47.984;7.842;2022-10-16T05:54:35;5.03;;;1.60;;
17696;SDS011;8967;47.984;7.842;2022-10-16T05:57:02;1.35;;;1.05;;
17696;SDS011;8967;47.984;7.842;2022-10-16T05:59:30;6.72;;;1.40;;
17696;SDS011;8967;47.984;7.842;2022-10-16T06:01:57;4.28;;;1.30;;
17696;SDS011;8967;47.984;7.842;2022-10-16T06:04:24;5.50;;;1.50;;
17696;SDS011;8967;47.984;7.842;2022-10-16T06:06:51;8.25;;;2.20;;
17696;SDS011;8967;47.984;7.842;2022-10-16T06:09:20;5.10;;;1.30;;
17696;SDS011;8967;47.984;7.842;2022-10-16T06:11:48;2.35;;;1.20;;
17696;SDS011;8967;47.984;7.842;2022-10-16T06:14:15;7.65;;;1.48;;
17696;SDS011;8967;47.984;7.842;2022-10-16T06:16:42;1.90;;;1.33;;
17696;SDS011;8967;47.984;7.842;2022-10-16T06:19:09;2.83;;;1.52;;
17696;SDS011;8967;47.984;7.842;2022-10-16T06:21:36;6.88;;;1.42;;
17696;SDS011;8967;47.984;7.842;2022-10-16T06:24:03;2.22;;;1.10;;
17696;SDS011;8967;47.984;7.842;2022-10-16T06:26:32;2.65;;;1.15;;
17696;SDS011;8967;47.984;7.842;2022-10-16T06:29:01;3.83;;;1.60;;
17696;SDS011;8967;47.984;7.842;2022-10-16T06:31:28;1.73;;;1.10;;
17696;SDS011;8967;47.984;7.842;2022-10-16T06:33:56;2.13;;;1.40;;
17696;SDS011;8967;47.984;7.842;2022-10-16T06:36:24;5.88;;;1.70;;
17696;SDS011;8967;47.984;7.842;2022-10-16T06:38:54;2.35;;;1.40;;
17696;SDS011;8967;47.984;7.842;2022-10-16T06:41:21;1.17;;;1.05;;
17696;SDS011;8967;47.984;7.842;2022-10-16T06:43:49;3.10;;;1.08;;
17696;SDS011;8967;47.984;7.842;2022-10-16T06:46:19;3.45;;;1.20;;
17696;SDS011;8967;47.984;7.842;2022-10-16T06:48:47;1.65;;;1.33;;
17696;SDS011;8967;47.984;7.842;2022-10-16T06:51:15;2.08;;;1.38;;
17696;SDS011;8967;47.984;7.842;2022-10-16T06:53:44;4.30;;;1.55;;
17696;SDS011;8967;47.984;7.842;2022-10-16T06:56:14;5.05;;;1.27;;
17696;SDS011;8967;47.984;7.842;2022-10-16T06:58:45;4.72;;;1.50;;
17696;SDS011;8967;47.984;7.842;2022-10-16T07:01:12;5.07;;;1.80;;
17696;SDS011;8967;47.984;7.842;2022-10-16T07:03:43;4.47;;;1.75;;
17696;SDS011;8967;47.984;7.842;2022-10-16T07:06:12;4.03;;;1.90;;
17696;SDS011;8967;47.984;7.842;2022-10-16T07:08:41;3.75;;;1.73;;
17696;SDS011;8967;47.984;7.842;2022-10-16T07:11:09;4.50;;;1.90;;
17696;SDS011;8967;47.984;7.842;2022-10-16T07:13:38;3.63;;;1.80;;
17696;SDS011;8967;47.984;7.842;2022-10-16T07:16:06;3.20;;;1.83;;
17696;SDS011;8967;47.984;7.842;2022-10-16T07:18:34;3.67;;;1.67;;
17696;SDS011;8967;47.984;7.842;2022-10-16T07:21:06;3.22;;;1.60;;
17696;SDS011;8967;47.984;7.842;2022-10-16T07:23:34;5.82;;;2.08;;
17696;SDS011;8967;47.984;7.842;2022-10-16T07:26:01;4.10;;;1.50;;
17696;SDS011;8967;47.984;7.842;2022-10-16T07:28:31;1.83;;;1.27;;
17696;SDS011;8967;47.984;7.842;2022-10-16T07:31:01;4.40;;;1.48;;
17696;SDS011;8967;47.984;7.842;2022-10-16T07:33:28;1.83;;;1.27;;
17696;SDS011;8967;47.984;7.842;2022-10-16T07:35:55;3.67;;;1.35;;
17696;SDS011;8967;47.984;7.842;2022-10-16T07:38:24;4.90;;;1.70;;
17696;SDS011;8967;47.984;7.842;2022-10-16T07:40:55;3.63;;;2.08;;
17696;SDS011;8967;47.984;7.842;2022-10-16T07:43:24;3.78;;;1.50;;
17696;SDS011;8967;47.984;7.842;2022-10-16T07:45:51;1.83;;;1.58;;
17696;SDS011;8967;47.984;7.842;2022-10-16T07:48:18;3.17;;;1.77;;
17696;SDS011;8967;47.984;7.842;2022-10-16T07:50:45;4.82;;;1.73;;
17696;SDS011;8967;47.984;7.842;2022-10-16T07:53:12;3.70;;;2.05;;
17696;SDS011;8967;47.984;7.842;2022-10-16T07:55:43;1.83;;;1.52;;
17696;SDS011;8967;47.984;7.842;2022-10-16T07:58:10;6.53;;;1.65;;
17696;SDS011;8967;47.984;7.842;2022-10-16T08:00:37;7.40;;;2.17;;
17696;SDS011;8967;47.984;7.842;2022-10-16T08:03:04;4.32;;;1.73;;
17696;SDS011;8967;47.984;7.842;2022-10-16T08:05:31;7.85;;;2.42;;
17696;SDS011;8967;47.984;7.842;2022-10-16T08:07:59;4.15;;;1.60;;
17696;SDS011;8967;47.984;7.842;2022-10-16T08:10:27;5.00;;;2.58;;
17696;SDS011;8967;47.984;7.842;2022-10-16T08:12:56;3.95;;;2.15;;
17696;SDS011;8967;47.984;7.842;2022-10-16T08:15:23;1.92;;;1.75;;
17696;SDS011;8967;47.984;7.842;2022-10-16T08:17:57;3.03;;;2.22;;
17696;SDS011;8967;47.984;7.842;2022-10-16T08:20:25;6.93;;;1.73;;
17696;SDS011;8967;47.984;7.842;2022-10-16T08:22:52;6.40;;;1.92;;
17696;SDS011;8967;47.984;7.842;2022-10-16T08:25:20;3.72;;;1.77;;
17696;SDS011;8967;47.984;7.842;2022-10-16T08:27:47;6.43;;;2.05;;
17696;SDS011;8967;47.984;7.842;2022-10-16T08:30:16;1.63;;;1.52;;
17696;SDS011;8967;47.984;7.842;2022-10-16T08:32:44;5.75;;;1.80;;
17696;SDS011;8967;47.984;7.842;2022-10-16T08:35:11;3.28;;;1.80;;
17696;SDS011;8967;47.984;7.842;2022-10-16T08:37:40;3.47;;;1.50;;
17696;SDS011;8967;47.984;7.842;2022-10-16T08:40:11;4.82;;;2.05;;
17696;SDS011;8967;47.984;7.842;2022-10-16T08:42:47;2.67;;;1.88;;
17696;SDS011;8967;47.984;7.842;2022-10-16T08:45:32;3.63;;;2.05;;
17696;SDS011;8967;47.984;7.842;2022-10-16T08:48:09;3.28;;;1.90;;
17696;SDS011;8967;47.984;7.842;2022-10-16T08:50:45;7.47;;;1.80;;
17696;SDS011;8967;47.984;7.842;2022-10-16T08:53:18;5.00;;;2.35;;
17696;SDS011;8967;47.984;7.842;2022-10-16T08:55:50;2.80;;;1.73;;
17696;SDS011;8967;47.984;7.842;2022-10-16T08:58:27;5.18;;;1.95;;
17696;SDS011;8967;47.984;7.842;2022-10-16T09:00:57;6.72;;;2.17;;
17696;SDS011;8967;47.984;7.842;2022-10-16T09:03:31;5.45;;;1.90;;
17696;SDS011;8967;47.984;7.842;2022-10-16T09:06:12;2.53;;;1.80;;
17696;SDS011;8967;47.984;7.842;2022-10-16T09:09:00;4.35;;;2.05;;
17696;SDS011;8967;47.984;7.842;2022-10-16T09:11:41;9.32;;;2.10;;
17696;SDS011;8967;47.984;7.842;2022-10-16T09:14:17;4.65;;;2.05;;
17696;SDS011;8967;47.984;7.842;2022-10-16T09:17:08;4.38;;;2.05;;
17696;SDS011;8967;47.984;7.842;2022-10-16T09:19:50;4.18;;;1.90;;
17696;SDS011;8967;47.984;7.842;2022-10-16T09:22:24;4.53;;;2.00;;
17696;SDS011;8967;47.984;7.842;2022-10-16T09:24:53;2.80;;;2.03;;
17696;SDS011;8967;47.984;7.842;2022-10-16T09:27:25;2.38;;;1.60;;
17696;SDS011;8967;47.984;7.842;2022-10-16T09:29:53;4.18;;;1.67;;
17696;SDS011;8967;47.984;7.842;2022-10-16T09:32:21;3.00;;;1.67;;
17696;SDS011;8967;47.984;7.842;2022-10-16T09:34:49;4.05;;;1.50;;
17696;SDS011;8967;47.984;7.842;2022-10-16T09:37:21;4.45;;;1.30;;
17696;SDS011;8967;47.984;7.842;2022-10-16T09:39:50;3.17;;;1.65;;
17696;SDS011;8967;47.984;7.842;2022-10-16T09:42:19;8.60;;;1.88;;
17696;SDS011;8967;47.984;7.842;2022-10-16T09:44:49;6.35;;;1.73;;
17696;SDS011;8967;47.984;7.842;2022-10-16T09:47:19;3.42;;;1.77;;
17696;SDS011;8967;47.984;7.842;2022-10-16T09:49:50;3.53;;;1.92;;
17696;SDS011;8967;47.984;7.842;2022-10-16T09:52:18;2.88;;;2.00;;
17696;SDS011;8967;47.984;7.842;2022-10-16T09:54:49;5.20;;;1.67;;
17696;SDS011;8967;47.984;7.842;2022-10-16T09:57:17;8.35;;;1.70;;
17696;SDS011;8967;47.984;7.842;2022-10-16T09:59:47;6.88;;;1.60;;
17696;SDS011;8967;47.984;7.842;2022-10-16T10:02:15;2.17;;;1.50;;
17696;SDS011;8967;47.984;7.842;2022-10-16T10:04:49;3.33;;;1.30;;
17696;SDS011;8967;47.984;7.842;2022-10-16T10:07:23;2.15;;;1.50;;
17696;SDS011;8967;47.984;7.842;2022-10-16T10:09:53;5.20;;;1.33;;
17696;SDS011;8967;47.984;7.842;2022-10-16T10:12:21;4.45;;;1.15;;
17696;SDS011;8967;47.984;7.842;2022-10-16T10:14:50;3.08;;;1.35;;
17696;SDS011;8967;47.984;7.842;2022-10-16T10:17:19;3.05;;;1.08;;
17696;SDS011;8967;47.984;7.842;2022-10-16T10:19:50;4.05;;;1.23;;
17696;SDS011;8967;47.984;7.842;2022-10-16T10:22:23;1.20;;;1.10;;
17696;SDS011;8967;47.984;7.842;2022-10-16T10:24:54;1.52;;;0.88;;
17696;SDS011;8967;47.984;7.842;2022-10-16T10:27:23;1.98;;;0.80;;
17696;SDS011;8967;47.984;7.842;2022-10-16T10:30:01;2.60;;;1.08;;
17696;SDS011;8967;47.984;7.842;2022-10-16T10:32:34;2.55;;;1.42;;
17696;SDS011;8967;47.984;7.842;2022-10-16T10:35:12;2.80;;;1.02;;
17696;SDS011;8967;47.984;7.842;2022-10-16T10:37:49;1.42;;;0.88;;
17696;SDS011;8967;47.984;7.842;2022-10-16T10:40:32;0.90;;;0.90;;
17696;SDS011;8967;47.984;7.842;2022-10-16T10:43:09;1.08;;;1.08;;
17696;SDS011;8967;47.984;7.842;2022-10-16T10:45:48;2.75;;;1.10;;
17696;SDS011;8967;47.984;7.842;2022-10-16T10:51:16;6.05;;;1.30;;
17696;SDS011;8967;47.984;7.842;2022-10-16T10:53:52;4.20;;;0.95;;
17696;SDS011;8967;47.984;7.842;2022-10-16T10:56:36;1.65;;;1.13;;
17696;SDS011;8967;47.984;7.842;2022-10-16T10:59:21;1.33;;;1.00;;
17696;SDS011;8967;47.984;7.842;2022-10-16T11:02:04;1.55;;;1.10;;
17696;SDS011;8967;47.984;7.842;2022-10-16T11:07:38;2.67;;;1.42;;
17696;SDS011;8967;47.984;7.842;2022-10-16T11:10:09;1.45;;;1.10;;
17696;SDS011;8967;47.984;7.842;2022-10-16T11:12:43;3.72;;;1.27;;
17696;SDS011;8967;47.984;7.842;2022-10-16T11:15:14;4.68;;;1.27;;
17696;SDS011;8967;47.984;7.842;2022-10-16T11:17:46;3.00;;;1.23;;
17696;SDS011;8967;47.984;7.842;2022-10-16T11:20:18;2.15;;;1.27;;
17696;SDS011;8967;47.984;7.842;2022-10-16T11:22:50;2.45;;;1.15;;
17696;SDS011;8967;47.984;7.842;2022-10-16T11:25:21;2.28;;;1.20;;
17696;SDS011;8967;47.984;7.842;2022-10-16T11:27:53;2.63;;;1.27;;
17696;SDS011;8967;47.984;7.842;2022-10-16T11:30:25;1.25;;;1.15;;
17696;SDS011;8967;47.984;7.842;2022-10-16T11:32:56;1.27;;;0.90;;
17696;SDS011;8967;47.984;7.842;2022-10-16T11:35:37;1.50;;;1.40;;
17696;SDS011;8967;47.984;7.842;2022-10-16T11:38:12;1.20;;;1.10;;
17696;SDS011;8967;47.984;7.842;2022-10-16T11:40:48;2.20;;;0.90;;
17696;SDS011;8967;47.984;7.842;2022-10-16T11:43:21;1.40;;;1.30;;
17696;SDS011;8967;47.984;7.842;2022-10-16T11:45:52;1.48;;;1.10;;
17696;SDS011;8967;47.984;7.842;2022-10-16T11:48:23;2.92;;;1.48;;
17696;SDS011;8967;47.984;7.842;2022-10-16T11:50:54;6.78;;;1.55;;
17696;SDS011;8967;47.984;7.842;2022-10-16T11:53:31;3.10;;;1.38;;
17696;SDS011;8967;47.984;7.842;2022-10-16T11:56:08;1.38;;;0.90;;
17696;SDS011;8967;47.984;7.842;2022-10-16T11:58:41;3.97;;;1.30;;
17696;SDS011;8967;47.984;7.842;2022-10-16T12:01:16;2.13;;;1.40;;
17696;SDS011;8967;47.984;7.842;2022-10-16T12:03:48;1.30;;;1.20;;
17696;SDS011;8967;47.984;7.842;2022-10-16T12:06:27;8.32;;;1.40;;
17696;SDS011;8967;47.984;7.842;2022-10-16T12:09:01;2.50;;;1.15;;
17696;SDS011;8967;47.984;7.842;2022-10-16T12:11:34;3.35;;;1.40;;
17696;SDS011;8967;47.984;7.842;2022-10-16T12:14:04;5.15;;;1.70;;
17696;SDS011;8967;47.984;7.842;2022-10-16T12:16:33;1.58;;;1.23;;
17696;SDS011;8967;47.984;7.842;2022-10-16T12:19:09;3.47;;;1.35;;
17696;SDS011;8967;47.984;7.842;2022-10-16T12:21:38;6.93;;;1.10;;
17696;SDS011;8967;47.984;7.842;2022-10-16T12:24:18;1.92;;;1.30;;
17696;SDS011;8967;47.984;7.842;2022-10-16T12:26:56;1.77;;;1.20;;
17696;SDS011;8967;47.984;7.842;2022-10-16T12:29:26;3.50;;;1.60;;
17696;SDS011;8967;47.984;7.842;2022-10-16T12:31:58;2.13;;;1.20;;
17696;SDS011;8967;47.984;7.842;2022-10-16T12:34:27;2.58;;;1.67;;
17696;SDS011;8967;47.984;7.842;2022-10-16T12:36:56;1.67;;;1.33;;
17696;SDS011;8967;47.984;7.842;2022-10-16T12:39:35;4.95;;;1.58;;
17696;SDS011;8967;47.984;7.842;2022-10-16T12:42:03;1.80;;;1.50;;
17696;SDS011;8967;47.984;7.842;2022-10-16T12:44:32;1.85;;;1.38;;
17696;SDS011;8967;47.984;7.842;2022-10-16T12:47:03;5.55;;;1.35;;
17696;SDS011;8967;47.984;7.842;2022-10-16T12:49:34;4.25;;;1.33;;
17696;SDS011;8967;47.984;7.842;2022-10-16T12:54:55;2.85;;;1.35;;
17696;SDS011;8967;47.984;7.842;2022-10-16T13:00:19;2.20;;;2.00;;
17696;SDS011;8967;47.984;7.842;2022-10-16T13:02:58;1.95;;;1.85;;
17696;SDS011;8967;47.984;7.842;2022-10-16T13:06:00;1.67;;;1.30;;
17696;SDS011;8967;47.984;7.842;2022-10-16T13:08:46;3.60;;;1.73;;
17696;SDS011;8967;47.984;7.842;2022-10-16T13:11:31;3.20;;;1.58;;
17696;SDS011;8967;47.984;7.842;2022-10-16T13:14:20;5.15;;;1.33;;
17696;SDS011;8967;47.984;7.842;2022-10-16T13:17:05;2.10;;;1.48;;
17696;SDS011;8967;47.984;7.842;2022-10-16T13:19:41;3.03;;;1.40;;
17696;SDS011;8967;47.984;7.842;2022-10-16T13:22:16;1.60;;;1.30;;
17696;SDS011;8967;47.984;7.842;2022-10-16T13:24:52;1.55;;;1.23;;
17696;SDS011;8967;47.984;7.842;2022-10-16T13:27:29;2.92;;;1.50;;
17696;SDS011;8967;47.984;7.842;2022-10-16T13:30:09;3.10;;;1.30;;
17696;SDS011;8967;47.984;7.842;2022-10-16T13:32:39;1.15;;;1.10;;
17696;SDS011;8967;47.984;7.842;2022-10-16T13:35:20;5.65;;;1.63;;
17696;SDS011;8967;47.984;7.842;2022-10-16T13:37:49;3.05;;;1.40;;
17696;SDS011;8967;47.984;7.842;2022-10-16T13:40:21;1.30;;;1.20;;
17696;SDS011;8967;47.984;7.842;2022-10-16T13:42:53;2.47;;;1.02;;
17696;SDS011;8967;47.984;7.842;2022-10-16T13:45:22;1.65;;;1.35;;
17696;SDS011;8967;47.984;7.842;2022-10-16T13:48:00;1.80;;;1.70;;
17696;SDS011;8967;47.984;7.842;2022-10-16T13:50:28;1.60;;;1.50;;
17696;SDS011;8967;47.984;7.842;2022-10-16T13:53:02;2.08;;;1.48;;
17696;SDS011;8967;47.984;7.842;2022-10-16T13:55:30;1.75;;;1.60;;
17696;SDS011;8967;47.984;7.842;2022-10-16T13:58:05;3.67;;;1.60;;
17696;SDS011;8967;47.984;7.842;2022-10-16T14:00:34;1.45;;;1.35;;
17696;SDS011;8967;47.984;7.842;2022-10-16T14:03:02;2.30;;;1.45;;
17696;SDS011;8967;47.984;7.842;2022-10-16T14:05:31;1.42;;;1.20;;
17696;SDS011;8967;47.984;7.842;2022-10-16T14:07:59;2.92;;;1.30;;
17696;SDS011;8967;47.984;7.842;2022-10-16T14:10:27;1.48;;;1.10;;
17696;SDS011;8967;47.984;7.842;2022-10-16T14:12:56;1.45;;;1.35;;
17696;SDS011;8967;47.984;7.842;2022-10-16T14:15:26;2.00;;;1.65;;
17696;SDS011;8967;47.984;7.842;2022-10-16T14:17:55;1.17;;;1.08;;
17696;SDS011;8967;47.984;7.842;2022-10-16T14:20:24;4.45;;;1.35;;
17696;SDS011;8967;47.984;7.842;2022-10-16T14:22:59;1.42;;;1.33;;
17696;SDS011;8967;47.984;7.842;2022-10-16T14:25:29;8.45;;;1.73;;
17696;SDS011;8967;47.984;7.842;2022-10-16T14:27:58;3.03;;;1.58;;
17696;SDS011;8967;47.984;7.842;2022-10-16T14:30:32;1.58;;;1.30;;
17696;SDS011;8967;47.984;7.842;2022-10-16T14:33:00;2.08;;;1.30;;
17696;SDS011;8967;47.984;7.842;2022-10-16T14:35:30;4.32;;;1.58;;
17696;SDS011;8967;47.984;7.842;2022-10-16T14:37:59;1.50;;;1.40;;
17696;SDS011;8967;47.984;7.842;2022-10-16T14:40:27;1.45;;;1.30;;
17696;SDS011;8967;47.984;7.842;2022-10-16T14:42:56;1.75;;;1.23;;
17696;SDS011;8967;47.984;7.842;2022-10-16T14:45:24;2.35;;;1.48;;
17696;SDS011;8967;47.984;7.842;2022-10-16T14:47:57;4.13;;;1.60;;
17696;SDS011;8967;47.984;7.842;2022-10-16T14:50:25;1.75;;;1.40;;
17696;SDS011;8967;47.984;7.842;2022-10-16T14:52:52;3.08;;;1.52;;
17696;SDS011;8967;47.984;7.842;2022-10-16T14:55:19;1.50;;;1.38;;
17696;SDS011;8967;47.984;7.842;2022-10-16T14:57:47;1.55;;;1.45;;
17696;SDS011;8967;47.984;7.842;2022-10-16T15:00:18;1.33;;;1.23;;
17696;SDS011;8967;47.984;7.842;2022-10-16T15:02:47;1.55;;;1.38;;
17696;SDS011;8967;47.984;7.842;2022-10-16T15:05:17;1.60;;;1.30;;
17696;SDS011;8967;47.984;7.842;2022-10-16T15:07:47;2.38;;;1.50;;
17696;SDS011;8967;47.984;7.842;2022-10-16T15:10:14;1.73;;;1.17;;
17696;SDS011;8967;47.984;7.842;2022-10-16T15:12:42;1.70;;;1.60;;
17696;SDS011;8967;47.984;7.842;2022-10-16T15:15:15;5.05;;;1.40;;
17696;SDS011;8967;47.984;7.842;2022-10-16T15:17:54;2.60;;;1.67;;
17696;SDS011;8967;47.984;7.842;2022-10-16T15:20:23;7.40;;;1.73;;
17696;SDS011;8967;47.984;7.842;2022-10-16T15:22:51;2.55;;;1.42;;
17696;SDS011;8967;47.984;7.842;2022-10-16T15:25:25;2.83;;;1.55;;
17696;SDS011;8967;47.984;7.842;2022-10-16T15:27:57;2.47;;;2.28;;
17696;SDS011;8967;47.984;7.842;2022-10-16T15:30:25;2.20;;;1.50;;
17696;SDS011;8967;47.984;7.842;2022-10-16T15:32:54;11.43;;;2.50;;